sensor_id;sensor_type;location;lat;lon;timestamp;P1;durP1;ratioP1;P2;durP2;ratioP2
16403;SDS011;8311;50.158;8.642;2024-02-04T00:02:36;1.77;;;0.50;;
16403;SDS011;8311;50.158;8.642;2024-02-04T00:05:30;1.75;;;0.75;;
16403;SDS011;8311;50.158;8.642;2024-02-04T00:08:25;0.55;;;0.50;;
16403;SDS011;8311;50.158;8.642;2024-02-04T00:11:19;0.82;;;0.50;;
16403;SDS011;8311;50.158;8.642;2024-02-04T00:14:12;0.47;;;0.40;;
16403;SDS011;8311;50.158;8.642;2024-02-04T00:17:06;1.20;;;0.57;;
16403;SDS011;8311;50.158;8.642;2024-02-04T00:19:58;1.00;;;0.38;;
16403;SDS011;8311;50.158;8.642;2024-02-04T00:22:52;0.40;;;0.40;;
16403;SDS011;8311;50.158;8.642;2024-02-04T00:25:47;1.17;;;0.52;;
16403;SDS011;8311;50.158;8.642;2024-02-04T00:28:40;1.75;;;0.68;;
16403;SDS011;8311;50.158;8.642;2024-02-04T00:31:34;0.95;;;0.60;;
16403;SDS011;8311;50.158;8.642;2024-02-04T00:34:27;1.58;;;0.73;;
16403;SDS011;8311;50.158;8.642;2024-02-04T00:37:20;5.03;;;0.50;;
16403;SDS011;8311;50.158;8.642;2024-02-04T00:40:14;0.73;;;0.63;;
16403;SDS011;8311;50.158;8.642;2024-02-04T00:43:08;0.50;;;0.50;;
16403;SDS011;8311;50.158;8.642;2024-02-04T00:46:04;0.75;;;0.45;;
16403;SDS011;8311;50.158;8.642;2024-02-04T00:48:56;0.55;;;0.43;;
16403;SDS011;8311;50.158;8.642;2024-02-04T00:51:49;0.60;;;0.43;;
16403;SDS011;8311;50.158;8.642;2024-02-04T00:54:42;0.73;;;0.60;;
16403;SDS011;8311;50.158;8.642;2024-02-04T00:57:35;0.70;;;0.55;;
16403;SDS011;8311;50.158;8.642;2024-02-04T01:00:30;1.20;;;0.32;;
16403;SDS011;8311;50.158;8.642;2024-02-04T01:03:23;0.68;;;0.52;;
16403;SDS011;8311;50.158;8.642;2024-02-04T01:06:16;0.50;;;0.50;;
16403;SDS011;8311;50.158;8.642;2024-02-04T01:09:10;0.43;;;0.40;;
16403;SDS011;8311;50.158;8.642;2024-02-04T01:12:03;1.75;;;0.77;;
16403;SDS011;8311;50.158;8.642;2024-02-04T01:14:56;1.08;;;0.40;;
16403;SDS011;8311;50.158;8.642;2024-02-04T01:17:52;1.20;;;0.50;;
16403;SDS011;8311;50.158;8.642;2024-02-04T01:20:45;0.65;;;0.43;;
16403;SDS011;8311;50.158;8.642;2024-02-04T01:23:38;0.95;;;0.57;;
16403;SDS011;8311;50.158;8.642;2024-02-04T01:26:31;0.98;;;0.60;;
16403;SDS011;8311;50.158;8.642;2024-02-04T01:29:24;0.80;;;0.52;;
16403;SDS011;8311;50.158;8.642;2024-02-04T01:32:17;0.95;;;0.40;;
16403;SDS011;8311;50.158;8.642;2024-02-04T01:35:12;0.30;;;0.30;;
16403;SDS011;8311;50.158;8.642;2024-02-04T01:38:07;0.65;;;0.50;;
16403;SDS011;8311;50.158;8.642;2024-02-04T01:40:59;1.02;;;0.40;;
16403;SDS011;8311;50.158;8.642;2024-02-04T01:43:52;0.75;;;0.50;;
16403;SDS011;8311;50.158;8.642;2024-02-04T01:46:46;0.63;;;0.45;;
16403;SDS011;8311;50.158;8.642;2024-02-04T01:49:39;0.70;;;0.45;;
16403;SDS011;8311;50.158;8.642;2024-02-04T01:52:35;0.40;;;0.22;;
16403;SDS011;8311;50.158;8.642;2024-02-04T01:55:29;0.75;;;0.57;;
16403;SDS011;8311;50.158;8.642;2024-02-04T01:58:23;0.65;;;0.32;;
16403;SDS011;8311;50.158;8.642;2024-02-04T02:01:16;0.40;;;0.40;;
16403;SDS011;8311;50.158;8.642;2024-02-04T02:04:09;0.90;;;0.50;;
16403;SDS011;8311;50.158;8.642;2024-02-04T02:07:02;0.38;;;0.38;;
16403;SDS011;8311;50.158;8.642;2024-02-04T02:10:00;0.85;;;0.50;;
16403;SDS011;8311;50.158;8.642;2024-02-04T02:12:58;0.60;;;0.40;;
16403;SDS011;8311;50.158;8.642;2024-02-04T02:15:58;0.40;;;0.40;;
16403;SDS011;8311;50.158;8.642;2024-02-04T02:19:00;0.55;;;0.35;;
16403;SDS011;8311;50.158;8.642;2024-02-04T02:22:06;0.30;;;0.30;;
16403;SDS011;8311;50.158;8.642;2024-02-04T02:25:11;0.68;;;0.40;;
16403;SDS011;8311;50.158;8.642;2024-02-04T02:28:07;0.60;;;0.50;;
16403;SDS011;8311;50.158;8.642;2024-02-04T02:31:00;1.08;;;0.50;;
16403;SDS011;8311;50.158;8.642;2024-02-04T02:33:57;0.75;;;0.40;;
16403;SDS011;8311;50.158;8.642;2024-02-04T02:36:54;0.40;;;0.40;;
16403;SDS011;8311;50.158;8.642;2024-02-04T02:39:55;0.70;;;0.40;;
16403;SDS011;8311;50.158;8.642;2024-02-04T02:42:53;1.88;;;0.38;;
16403;SDS011;8311;50.158;8.642;2024-02-04T02:45:48;0.40;;;0.40;;
16403;SDS011;8311;50.158;8.642;2024-02-04T02:48:42;0.45;;;0.40;;
16403;SDS011;8311;50.158;8.642;2024-02-04T02:51:35;0.88;;;0.45;;
16403;SDS011;8311;50.158;8.642;2024-02-04T02:54:28;0.75;;;0.40;;
16403;SDS011;8311;50.158;8.642;2024-02-04T02:57:21;0.30;;;0.30;;
16403;SDS011;8311;50.158;8.642;2024-02-04T03:00:16;0.52;;;0.40;;
16403;SDS011;8311;50.158;8.642;2024-02-04T03:03:10;0.38;;;0.30;;
16403;SDS011;8311;50.158;8.642;2024-02-04T03:06:03;1.75;;;0.32;;
16403;SDS011;8311;50.158;8.642;2024-02-04T03:08:57;0.30;;;0.30;;
16403;SDS011;8311;50.158;8.642;2024-02-04T03:11:51;0.40;;;0.40;;
16403;SDS011;8311;50.158;8.642;2024-02-04T03:14:43;0.93;;;0.60;;
16403;SDS011;8311;50.158;8.642;2024-02-04T03:17:39;0.43;;;0.30;;
16403;SDS011;8311;50.158;8.642;2024-02-04T03:20:32;1.23;;;0.50;;
16403;SDS011;8311;50.158;8.642;2024-02-04T03:23:27;1.10;;;0.60;;
16403;SDS011;8311;50.158;8.642;2024-02-04T03:26:20;0.40;;;0.40;;
16403;SDS011;8311;50.158;8.642;2024-02-04T03:29:14;0.38;;;0.35;;
16403;SDS011;8311;50.158;8.642;2024-02-04T03:32:08;0.40;;;0.40;;
16403;SDS011;8311;50.158;8.642;2024-02-04T03:35:02;0.45;;;0.35;;
16403;SDS011;8311;50.158;8.642;2024-02-04T03:37:56;0.40;;;0.40;;
16403;SDS011;8311;50.158;8.642;2024-02-04T03:40:50;0.40;;;0.40;;
16403;SDS011;8311;50.158;8.642;2024-02-04T03:43:42;0.30;;;0.30;;
16403;SDS011;8311;50.158;8.642;2024-02-04T03:46:36;0.22;;;0.22;;
16403;SDS011;8311;50.158;8.642;2024-02-04T03:49:31;0.45;;;0.30;;
16403;SDS011;8311;50.158;8.642;2024-02-04T03:52:26;0.32;;;0.32;;
16403;SDS011;8311;50.158;8.642;2024-02-04T03:55:18;0.45;;;0.28;;
16403;SDS011;8311;50.158;8.642;2024-02-04T03:58:13;1.00;;;0.70;;
16403;SDS011;8311;50.158;8.642;2024-02-04T04:01:09;0.30;;;0.30;;
16403;SDS011;8311;50.158;8.642;2024-02-04T04:04:02;0.52;;;0.40;;
16403;SDS011;8311;50.158;8.642;2024-02-04T04:06:55;0.90;;;0.40;;
16403;SDS011;8311;50.158;8.642;2024-02-04T04:09:50;0.73;;;0.40;;
16403;SDS011;8311;50.158;8.642;2024-02-04T04:12:43;1.27;;;0.52;;
16403;SDS011;8311;50.158;8.642;2024-02-04T04:15:37;0.40;;;0.40;;
16403;SDS011;8311;50.158;8.642;2024-02-04T04:18:31;0.68;;;0.45;;
16403;SDS011;8311;50.158;8.642;2024-02-04T04:21:25;0.75;;;0.40;;
16403;SDS011;8311;50.158;8.642;2024-02-04T04:24:19;0.30;;;0.30;;
16403;SDS011;8311;50.158;8.642;2024-02-04T04:27:15;0.50;;;0.40;;
16403;SDS011;8311;50.158;8.642;2024-02-04T04:30:09;0.35;;;0.30;;
16403;SDS011;8311;50.158;8.642;2024-02-04T04:33:03;0.22;;;0.22;;
16403;SDS011;8311;50.158;8.642;2024-02-04T04:35:58;0.43;;;0.40;;
16403;SDS011;8311;50.158;8.642;2024-02-04T04:38:50;0.82;;;0.30;;
16403;SDS011;8311;50.158;8.642;2024-02-04T04:41:44;1.45;;;0.57;;
16403;SDS011;8311;50.158;8.642;2024-02-04T04:44:39;2.80;;;0.80;;
16403;SDS011;8311;50.158;8.642;2024-02-04T04:47:32;2.88;;;0.80;;
16403;SDS011;8311;50.158;8.642;2024-02-04T04:50:25;5.07;;;1.00;;
16403;SDS011;8311;50.158;8.642;2024-02-04T04:53:19;8.48;;;0.90;;
16403;SDS011;8311;50.158;8.642;2024-02-04T04:56:11;4.53;;;0.98;;
16403;SDS011;8311;50.158;8.642;2024-02-04T04:59:05;7.57;;;0.80;;
16403;SDS011;8311;50.158;8.642;2024-02-04T05:02:00;5.20;;;1.02;;
16403;SDS011;8311;50.158;8.642;2024-02-04T05:04:54;2.78;;;0.68;;
16403;SDS011;8311;50.158;8.642;2024-02-04T05:07:46;6.03;;;1.23;;
16403;SDS011;8311;50.158;8.642;2024-02-04T05:10:41;4.68;;;1.00;;
16403;SDS011;8311;50.158;8.642;2024-02-04T05:13:33;1.40;;;0.43;;
16403;SDS011;8311;50.158;8.642;2024-02-04T05:16:27;3.75;;;0.80;;
16403;SDS011;8311;50.158;8.642;2024-02-04T05:19:24;2.55;;;0.70;;
16403;SDS011;8311;50.158;8.642;2024-02-04T05:22:16;2.80;;;0.63;;
16403;SDS011;8311;50.158;8.642;2024-02-04T05:25:11;3.55;;;1.10;;
16403;SDS011;8311;50.158;8.642;2024-02-04T05:28:04;2.25;;;0.50;;
16403;SDS011;8311;50.158;8.642;2024-02-04T05:30:59;3.40;;;0.70;;
16403;SDS011;8311;50.158;8.642;2024-02-04T05:33:55;1.02;;;0.57;;
16403;SDS011;8311;50.158;8.642;2024-02-04T05:36:51;2.67;;;0.50;;
16403;SDS011;8311;50.158;8.642;2024-02-04T05:39:43;2.92;;;0.65;;
16403;SDS011;8311;50.158;8.642;2024-02-04T05:42:37;2.53;;;0.90;;
16403;SDS011;8311;50.158;8.642;2024-02-04T05:45:29;4.68;;;1.00;;
16403;SDS011;8311;50.158;8.642;2024-02-04T05:48:25;3.55;;;0.63;;
16403;SDS011;8311;50.158;8.642;2024-02-04T05:51:18;2.55;;;0.82;;
16403;SDS011;8311;50.158;8.642;2024-02-04T05:54:14;8.40;;;1.08;;
16403;SDS011;8311;50.158;8.642;2024-02-04T05:57:06;3.67;;;0.85;;
16403;SDS011;8311;50.158;8.642;2024-02-04T06:00:00;3.55;;;1.00;;
16403;SDS011;8311;50.158;8.642;2024-02-04T06:02:53;1.25;;;0.50;;
16403;SDS011;8311;50.158;8.642;2024-02-04T06:05:46;1.58;;;0.60;;
16403;SDS011;8311;50.158;8.642;2024-02-04T06:08:38;2.63;;;0.77;;
16403;SDS011;8311;50.158;8.642;2024-02-04T06:11:36;3.80;;;0.90;;
16403;SDS011;8311;50.158;8.642;2024-02-04T06:14:28;4.30;;;1.00;;
16403;SDS011;8311;50.158;8.642;2024-02-04T06:17:23;5.60;;;1.15;;
16403;SDS011;8311;50.158;8.642;2024-02-04T06:20:15;3.95;;;1.10;;
16403;SDS011;8311;50.158;8.642;2024-02-04T06:23:09;4.30;;;1.42;;
16403;SDS011;8311;50.158;8.642;2024-02-04T06:26:02;4.97;;;1.35;;
16403;SDS011;8311;50.158;8.642;2024-02-04T06:28:57;4.65;;;1.35;;
16403;SDS011;8311;50.158;8.642;2024-02-04T06:31:51;10.00;;;1.50;;
16403;SDS011;8311;50.158;8.642;2024-02-04T06:34:45;7.22;;;1.50;;
16403;SDS011;8311;50.158;8.642;2024-02-04T06:37:40;6.25;;;1.20;;
16403;SDS011;8311;50.158;8.642;2024-02-04T06:40:33;5.35;;;1.02;;
16403;SDS011;8311;50.158;8.642;2024-02-04T06:43:26;5.82;;;1.67;;
16403;SDS011;8311;50.158;8.642;2024-02-04T06:46:25;5.65;;;1.50;;
16403;SDS011;8311;50.158;8.642;2024-02-04T06:49:17;3.35;;;1.10;;
16403;SDS011;8311;50.158;8.642;2024-02-04T06:52:11;6.30;;;2.05;;
16403;SDS011;8311;50.158;8.642;2024-02-04T06:55:05;6.05;;;1.45;;
16403;SDS011;8311;50.158;8.642;2024-02-04T06:57:59;6.70;;;1.20;;
16403;SDS011;8311;50.158;8.642;2024-02-04T07:00:51;3.70;;;1.00;;
16403;SDS011;8311;50.158;8.642;2024-02-04T07:03:46;4.38;;;1.27;;
16403;SDS011;8311;50.158;8.642;2024-02-04T07:06:41;4.53;;;1.73;;
16403;SDS011;8311;50.158;8.642;2024-02-04T07:09:35;5.22;;;1.85;;
16403;SDS011;8311;50.158;8.642;2024-02-04T07:12:28;3.47;;;1.30;;
16403;SDS011;8311;50.158;8.642;2024-02-04T07:15:22;5.80;;;1.45;;
16403;SDS011;8311;50.158;8.642;2024-02-04T07:18:17;4.85;;;1.30;;
16403;SDS011;8311;50.158;8.642;2024-02-04T07:21:14;3.58;;;0.90;;
16403;SDS011;8311;50.158;8.642;2024-02-04T07:24:07;11.95;;;1.90;;
16403;SDS011;8311;50.158;8.642;2024-02-04T07:26:59;4.97;;;1.30;;
16403;SDS011;8311;50.158;8.642;2024-02-04T07:29:53;5.47;;;1.05;;
16403;SDS011;8311;50.158;8.642;2024-02-04T07:32:46;4.10;;;1.05;;
16403;SDS011;8311;50.158;8.642;2024-02-04T07:35:39;5.57;;;1.63;;
16403;SDS011;8311;50.158;8.642;2024-02-04T07:38:33;3.90;;;1.20;;
16403;SDS011;8311;50.158;8.642;2024-02-04T07:41:26;4.75;;;1.30;;
16403;SDS011;8311;50.158;8.642;2024-02-04T07:44:19;6.45;;;1.75;;
16403;SDS011;8311;50.158;8.642;2024-02-04T07:47:12;4.00;;;1.15;;
16403;SDS011;8311;50.158;8.642;2024-02-04T07:50:05;4.13;;;0.70;;
16403;SDS011;8311;50.158;8.642;2024-02-04T07:52:59;0.95;;;0.60;;
16403;SDS011;8311;50.158;8.642;2024-02-04T07:55:53;5.00;;;0.88;;
16403;SDS011;8311;50.158;8.642;2024-02-04T07:58:46;3.97;;;0.80;;
16403;SDS011;8311;50.158;8.642;2024-02-04T08:01:38;2.25;;;0.73;;
16403;SDS011;8311;50.158;8.642;2024-02-04T08:04:33;2.38;;;0.52;;
16403;SDS011;8311;50.158;8.642;2024-02-04T08:07:26;4.70;;;0.57;;
16403;SDS011;8311;50.158;8.642;2024-02-04T08:10:19;1.42;;;0.50;;
16403;SDS011;8311;50.158;8.642;2024-02-04T08:13:13;2.00;;;0.45;;
16403;SDS011;8311;50.158;8.642;2024-02-04T08:16:06;10.18;;;2.00;;
16403;SDS011;8311;50.158;8.642;2024-02-04T08:19:00;4.40;;;1.10;;
16403;SDS011;8311;50.158;8.642;2024-02-04T08:21:54;7.05;;;1.23;;
16403;SDS011;8311;50.158;8.642;2024-02-04T08:24:47;8.85;;;1.05;;
16403;SDS011;8311;50.158;8.642;2024-02-04T08:27:40;5.55;;;1.25;;
16403;SDS011;8311;50.158;8.642;2024-02-04T08:30:34;1.85;;;0.90;;
16403;SDS011;8311;50.158;8.642;2024-02-04T08:33:28;6.72;;;1.15;;
16403;SDS011;8311;50.158;8.642;2024-02-04T08:36:21;3.85;;;0.93;;
16403;SDS011;8311;50.158;8.642;2024-02-04T08:39:15;7.60;;;1.27;;
16403;SDS011;8311;50.158;8.642;2024-02-04T08:42:08;7.25;;;1.17;;
16403;SDS011;8311;50.158;8.642;2024-02-04T08:45:00;6.47;;;1.67;;
16403;SDS011;8311;50.158;8.642;2024-02-04T08:47:55;11.02;;;1.17;;
16403;SDS011;8311;50.158;8.642;2024-02-04T08:50:48;7.82;;;1.38;;
16403;SDS011;8311;50.158;8.642;2024-02-04T08:53:46;4.35;;;0.90;;
16403;SDS011;8311;50.158;8.642;2024-02-04T08:56:39;10.07;;;1.20;;
16403;SDS011;8311;50.158;8.642;2024-02-04T08:59:32;11.90;;;1.50;;
16403;SDS011;8311;50.158;8.642;2024-02-04T09:02:25;5.72;;;1.20;;
16403;SDS011;8311;50.158;8.642;2024-02-04T09:05:19;8.90;;;1.15;;
16403;SDS011;8311;50.158;8.642;2024-02-04T09:08:12;7.72;;;1.17;;
16403;SDS011;8311;50.158;8.642;2024-02-04T09:11:06;7.93;;;1.10;;
16403;SDS011;8311;50.158;8.642;2024-02-04T09:13:59;5.68;;;1.15;;
16403;SDS011;8311;50.158;8.642;2024-02-04T09:16:55;9.05;;;1.40;;
16403;SDS011;8311;50.158;8.642;2024-02-04T09:19:49;3.80;;;0.98;;
16403;SDS011;8311;50.158;8.642;2024-02-04T09:22:45;5.32;;;1.38;;
16403;SDS011;8311;50.158;8.642;2024-02-04T09:25:39;6.18;;;0.85;;
16403;SDS011;8311;50.158;8.642;2024-02-04T09:28:32;4.93;;;1.08;;
16403;SDS011;8311;50.158;8.642;2024-02-04T09:31:25;7.13;;;1.10;;
16403;SDS011;8311;50.158;8.642;2024-02-04T09:34:18;4.43;;;1.00;;
16403;SDS011;8311;50.158;8.642;2024-02-04T09:37:13;2.58;;;1.00;;
16403;SDS011;8311;50.158;8.642;2024-02-04T09:40:10;3.72;;;1.30;;
16403;SDS011;8311;50.158;8.642;2024-02-04T09:43:05;4.22;;;1.20;;
16403;SDS011;8311;50.158;8.642;2024-02-04T09:45:59;9.52;;;1.27;;
16403;SDS011;8311;50.158;8.642;2024-02-04T09:48:53;3.30;;;0.98;;
16403;SDS011;8311;50.158;8.642;2024-02-04T09:51:48;3.55;;;0.85;;
16403;SDS011;8311;50.158;8.642;2024-02-04T09:54:44;5.45;;;1.17;;
16403;SDS011;8311;50.158;8.642;2024-02-04T09:57:42;1.35;;;0.70;;
16403;SDS011;8311;50.158;8.642;2024-02-04T10:00:36;5.00;;;1.05;;
16403;SDS011;8311;50.158;8.642;2024-02-04T10:03:36;3.90;;;0.93;;
16403;SDS011;8311;50.158;8.642;2024-02-04T10:06:29;7.30;;;0.95;;
16403;SDS011;8311;50.158;8.642;2024-02-04T10:09:23;6.00;;;1.00;;
16403;SDS011;8311;50.158;8.642;2024-02-04T10:12:17;5.68;;;1.42;;
16403;SDS011;8311;50.158;8.642;2024-02-04T10:15:12;4.95;;;0.90;;
16403;SDS011;8311;50.158;8.642;2024-02-04T10:18:07;3.40;;;0.68;;
16403;SDS011;8311;50.158;8.642;2024-02-04T10:21:01;7.65;;;1.48;;
16403;SDS011;8311;50.158;8.642;2024-02-04T10:23:54;6.28;;;1.55;;
16403;SDS011;8311;50.158;8.642;2024-02-04T10:26:48;7.10;;;1.13;;
16403;SDS011;8311;50.158;8.642;2024-02-04T10:29:40;5.47;;;1.00;;
16403;SDS011;8311;50.158;8.642;2024-02-04T10:32:35;3.95;;;1.10;;
16403;SDS011;8311;50.158;8.642;2024-02-04T10:35:30;3.15;;;1.08;;
16403;SDS011;8311;50.158;8.642;2024-02-04T10:38:24;4.32;;;0.95;;
16403;SDS011;8311;50.158;8.642;2024-02-04T10:41:17;3.45;;;0.93;;
16403;SDS011;8311;50.158;8.642;2024-02-04T10:44:10;5.90;;;1.17;;
16403;SDS011;8311;50.158;8.642;2024-02-04T10:47:08;6.47;;;0.93;;
16403;SDS011;8311;50.158;8.642;2024-02-04T10:50:09;5.90;;;1.02;;
16403;SDS011;8311;50.158;8.642;2024-02-04T10:53:05;3.63;;;0.90;;
16403;SDS011;8311;50.158;8.642;2024-02-04T10:55:59;1.25;;;0.50;;
16403;SDS011;8311;50.158;8.642;2024-02-04T10:58:58;6.00;;;1.13;;
16403;SDS011;8311;50.158;8.642;2024-02-04T11:01:54;2.33;;;0.55;;
16403;SDS011;8311;50.158;8.642;2024-02-04T11:04:48;5.88;;;0.88;;
16403;SDS011;8311;50.158;8.642;2024-02-04T11:07:43;5.97;;;0.70;;
16403;SDS011;8311;50.158;8.642;2024-02-04T11:10:37;3.38;;;0.90;;
16403;SDS011;8311;50.158;8.642;2024-02-04T11:13:32;2.42;;;0.60;;
16403;SDS011;8311;50.158;8.642;2024-02-04T11:16:30;3.10;;;0.88;;
16403;SDS011;8311;50.158;8.642;2024-02-04T11:19:41;1.88;;;0.90;;
16403;SDS011;8311;50.158;8.642;2024-02-04T11:22:55;1.58;;;0.77;;
16403;SDS011;8311;50.158;8.642;2024-02-04T11:26:04;3.85;;;1.00;;
16403;SDS011;8311;50.158;8.642;2024-02-04T11:28:58;4.38;;;0.90;;
16403;SDS011;8311;50.158;8.642;2024-02-04T11:31:52;2.42;;;0.60;;
16403;SDS011;8311;50.158;8.642;2024-02-04T11:34:49;3.78;;;0.82;;
16403;SDS011;8311;50.158;8.642;2024-02-04T11:37:45;2.30;;;0.70;;
16403;SDS011;8311;50.158;8.642;2024-02-04T11:40:41;4.45;;;0.80;;
16403;SDS011;8311;50.158;8.642;2024-02-04T11:43:36;3.95;;;0.95;;
16403;SDS011;8311;50.158;8.642;2024-02-04T11:46:30;1.73;;;0.77;;
16403;SDS011;8311;50.158;8.642;2024-02-04T11:49:25;2.25;;;0.85;;
16403;SDS011;8311;50.158;8.642;2024-02-04T11:52:19;2.15;;;0.90;;
16403;SDS011;8311;50.158;8.642;2024-02-04T11:55:13;1.95;;;1.10;;
16403;SDS011;8311;50.158;8.642;2024-02-04T11:58:08;3.60;;;0.80;;
16403;SDS011;8311;50.158;8.642;2024-02-04T12:01:02;5.68;;;1.02;;
16403;SDS011;8311;50.158;8.642;2024-02-04T12:03:56;4.13;;;1.02;;
16403;SDS011;8311;50.158;8.642;2024-02-04T12:06:49;4.40;;;1.17;;
16403;SDS011;8311;50.158;8.642;2024-02-04T12:09:43;3.72;;;0.98;;
16403;SDS011;8311;50.158;8.642;2024-02-04T12:12:37;6.70;;;1.35;;
16403;SDS011;8311;50.158;8.642;2024-02-04T12:15:32;5.15;;;1.00;;
16403;SDS011;8311;50.158;8.642;2024-02-04T12:18:30;4.38;;;0.90;;
16403;SDS011;8311;50.158;8.642;2024-02-04T12:21:23;2.28;;;0.68;;
16403;SDS011;8311;50.158;8.642;2024-02-04T12:24:20;3.72;;;1.00;;
16403;SDS011;8311;50.158;8.642;2024-02-04T12:27:15;3.00;;;1.00;;
16403;SDS011;8311;50.158;8.642;2024-02-04T12:30:08;2.15;;;1.30;;
16403;SDS011;8311;50.158;8.642;2024-02-04T12:33:04;3.25;;;0.73;;
16403;SDS011;8311;50.158;8.642;2024-02-04T12:36:00;2.92;;;0.82;;
16403;SDS011;8311;50.158;8.642;2024-02-04T12:38:53;4.28;;;0.80;;
16403;SDS011;8311;50.158;8.642;2024-02-04T12:41:50;0.95;;;0.70;;
16403;SDS011;8311;50.158;8.642;2024-02-04T12:44:44;1.45;;;0.90;;
16403;SDS011;8311;50.158;8.642;2024-02-04T12:47:39;3.13;;;0.98;;
16403;SDS011;8311;50.158;8.642;2024-02-04T12:50:36;1.45;;;0.60;;
16403;SDS011;8311;50.158;8.642;2024-02-04T12:53:30;2.50;;;0.90;;
16403;SDS011;8311;50.158;8.642;2024-02-04T12:56:23;0.82;;;0.52;;
16403;SDS011;8311;50.158;8.642;2024-02-04T12:59:25;2.03;;;0.85;;
16403;SDS011;8311;50.158;8.642;2024-02-04T13:02:19;1.75;;;0.80;;
16403;SDS011;8311;50.158;8.642;2024-02-04T13:05:21;2.63;;;0.70;;
16403;SDS011;8311;50.158;8.642;2024-02-04T13:08:18;2.47;;;0.90;;
16403;SDS011;8311;50.158;8.642;2024-02-04T13:11:12;3.05;;;0.88;;
16403;SDS011;8311;50.158;8.642;2024-02-04T13:14:12;2.88;;;0.70;;
16403;SDS011;8311;50.158;8.642;2024-02-04T13:17:06;0.73;;;0.50;;
16403;SDS011;8311;50.158;8.642;2024-02-04T13:20:00;2.05;;;0.70;;
16403;SDS011;8311;50.158;8.642;2024-02-04T13:22:54;2.13;;;0.52;;
16403;SDS011;8311;50.158;8.642;2024-02-04T13:25:49;1.77;;;0.60;;
16403;SDS011;8311;50.158;8.642;2024-02-04T13:28:42;2.33;;;0.90;;
16403;SDS011;8311;50.158;8.642;2024-02-04T13:31:36;1.55;;;0.85;;
16403;SDS011;8311;50.158;8.642;2024-02-04T13:34:29;0.77;;;0.50;;
16403;SDS011;8311;50.158;8.642;2024-02-04T13:37:22;1.35;;;0.70;;
16403;SDS011;8311;50.158;8.642;2024-02-04T13:40:15;1.02;;;0.60;;
16403;SDS011;8311;50.158;8.642;2024-02-04T13:43:10;2.20;;;0.63;;
16403;SDS011;8311;50.158;8.642;2024-02-04T13:46:04;1.27;;;0.70;;
16403;SDS011;8311;50.158;8.642;2024-02-04T13:48:58;1.73;;;0.70;;
16403;SDS011;8311;50.158;8.642;2024-02-04T13:51:51;1.33;;;0.60;;
16403;SDS011;8311;50.158;8.642;2024-02-04T13:54:44;2.67;;;0.65;;
16403;SDS011;8311;50.158;8.642;2024-02-04T13:57:38;3.22;;;0.90;;
16403;SDS011;8311;50.158;8.642;2024-02-04T14:00:33;1.65;;;0.57;;
16403;SDS011;8311;50.158;8.642;2024-02-04T14:03:28;0.77;;;0.40;;
16403;SDS011;8311;50.158;8.642;2024-02-04T14:06:21;1.95;;;0.50;;
16403;SDS011;8311;50.158;8.642;2024-02-04T14:09:15;1.10;;;0.55;;
16403;SDS011;8311;50.158;8.642;2024-02-04T14:12:08;2.17;;;1.15;;
16403;SDS011;8311;50.158;8.642;2024-02-04T14:15:03;1.85;;;0.50;;
16403;SDS011;8311;50.158;8.642;2024-02-04T14:18:00;0.95;;;0.60;;
16403;SDS011;8311;50.158;8.642;2024-02-04T14:20:53;1.58;;;0.57;;
16403;SDS011;8311;50.158;8.642;2024-02-04T14:23:47;0.90;;;0.55;;
16403;SDS011;8311;50.158;8.642;2024-02-04T14:26:40;3.15;;;0.45;;
16403;SDS011;8311;50.158;8.642;2024-02-04T14:29:33;2.70;;;1.05;;
16403;SDS011;8311;50.158;8.642;2024-02-04T14:32:26;0.80;;;0.40;;
16403;SDS011;8311;50.158;8.642;2024-02-04T14:35:22;1.20;;;0.60;;
16403;SDS011;8311;50.158;8.642;2024-02-04T14:38:15;0.45;;;0.40;;
16403;SDS011;8311;50.158;8.642;2024-02-04T14:41:08;1.80;;;0.77;;
16403;SDS011;8311;50.158;8.642;2024-02-04T14:44:01;1.40;;;0.60;;
16403;SDS011;8311;50.158;8.642;2024-02-04T14:46:54;1.25;;;0.77;;
16403;SDS011;8311;50.158;8.642;2024-02-04T14:49:47;2.03;;;0.63;;
16403;SDS011;8311;50.158;8.642;2024-02-04T14:52:44;3.22;;;0.93;;
16403;SDS011;8311;50.158;8.642;2024-02-04T14:55:38;1.98;;;0.65;;
16403;SDS011;8311;50.158;8.642;2024-02-04T14:58:31;0.85;;;0.60;;
16403;SDS011;8311;50.158;8.642;2024-02-04T15:01:24;0.98;;;0.40;;
16403;SDS011;8311;50.158;8.642;2024-02-04T15:04:17;0.75;;;0.60;;
16403;SDS011;8311;50.158;8.642;2024-02-04T15:07:11;2.45;;;0.50;;
16403;SDS011;8311;50.158;8.642;2024-02-04T15:10:07;0.20;;;0.20;;
16403;SDS011;8311;50.158;8.642;2024-02-04T15:13:01;2.22;;;0.40;;
16403;SDS011;8311;50.158;8.642;2024-02-04T15:15:58;1.20;;;0.50;;
16403;SDS011;8311;50.158;8.642;2024-02-04T15:18:54;1.65;;;0.47;;
16403;SDS011;8311;50.158;8.642;2024-02-04T15:21:47;0.52;;;0.47;;
16403;SDS011;8311;50.158;8.642;2024-02-04T15:24:41;3.00;;;0.60;;
16403;SDS011;8311;50.158;8.642;2024-02-04T15:27:36;1.42;;;0.50;;
16403;SDS011;8311;50.158;8.642;2024-02-04T15:30:32;3.42;;;0.70;;
16403;SDS011;8311;50.158;8.642;2024-02-04T15:33:26;1.75;;;0.40;;
16403;SDS011;8311;50.158;8.642;2024-02-04T15:36:21;1.45;;;0.50;;
16403;SDS011;8311;50.158;8.642;2024-02-04T15:39:16;1.75;;;0.60;;
16403;SDS011;8311;50.158;8.642;2024-02-04T15:42:11;1.38;;;0.60;;
16403;SDS011;8311;50.158;8.642;2024-02-04T15:45:06;1.23;;;0.63;;
16403;SDS011;8311;50.158;8.642;2024-02-04T15:48:01;3.40;;;0.73;;
16403;SDS011;8311;50.158;8.642;2024-02-04T15:50:57;0.93;;;0.40;;
16403;SDS011;8311;50.158;8.642;2024-02-04T15:53:51;0.82;;;0.60;;
16403;SDS011;8311;50.158;8.642;2024-02-04T15:56:48;0.82;;;0.52;;
16403;SDS011;8311;50.158;8.642;2024-02-04T15:59:49;0.65;;;0.40;;
16403;SDS011;8311;50.158;8.642;2024-02-04T16:02:48;1.25;;;0.50;;
16403;SDS011;8311;50.158;8.642;2024-02-04T16:05:42;1.92;;;0.70;;
16403;SDS011;8311;50.158;8.642;2024-02-04T16:08:36;0.55;;;0.45;;
16403;SDS011;8311;50.158;8.642;2024-02-04T16:11:34;1.00;;;0.40;;
16403;SDS011;8311;50.158;8.642;2024-02-04T16:14:35;0.35;;;0.32;;
16403;SDS011;8311;50.158;8.642;2024-02-04T16:17:34;1.00;;;0.60;;
16403;SDS011;8311;50.158;8.642;2024-02-04T16:20:32;0.90;;;0.50;;
16403;SDS011;8311;50.158;8.642;2024-02-04T16:23:31;0.75;;;0.45;;
16403;SDS011;8311;50.158;8.642;2024-02-04T16:26:25;1.55;;;0.60;;
16403;SDS011;8311;50.158;8.642;2024-02-04T16:29:18;1.05;;;0.50;;
16403;SDS011;8311;50.158;8.642;2024-02-04T16:32:16;1.90;;;0.55;;
16403;SDS011;8311;50.158;8.642;2024-02-04T16:35:09;0.77;;;0.50;;
16403;SDS011;8311;50.158;8.642;2024-02-04T16:38:05;1.13;;;0.50;;
16403;SDS011;8311;50.158;8.642;2024-02-04T16:40:58;1.15;;;0.60;;
16403;SDS011;8311;50.158;8.642;2024-02-04T16:43:52;0.45;;;0.30;;
16403;SDS011;8311;50.158;8.642;2024-02-04T16:46:46;0.70;;;0.40;;
16403;SDS011;8311;50.158;8.642;2024-02-04T16:49:39;1.50;;;0.52;;
16403;SDS011;8311;50.158;8.642;2024-02-04T16:52:34;0.73;;;0.40;;
16403;SDS011;8311;50.158;8.642;2024-02-04T16:55:29;1.30;;;0.40;;
16403;SDS011;8311;50.158;8.642;2024-02-04T16:58:22;0.57;;;0.45;;
16403;SDS011;8311;50.158;8.642;2024-02-04T17:01:15;0.68;;;0.50;;
16403;SDS011;8311;50.158;8.642;2024-02-04T17:04:08;2.13;;;0.85;;
16403;SDS011;8311;50.158;8.642;2024-02-04T17:07:02;0.60;;;0.50;;
16403;SDS011;8311;50.158;8.642;2024-02-04T17:09:59;0.40;;;0.40;;
16403;SDS011;8311;50.158;8.642;2024-02-04T17:12:54;1.13;;;0.32;;
16403;SDS011;8311;50.158;8.642;2024-02-04T17:15:49;0.30;;;0.30;;
16403;SDS011;8311;50.158;8.642;2024-02-04T17:18:47;1.17;;;0.60;;
16403;SDS011;8311;50.158;8.642;2024-02-04T17:21:43;0.40;;;0.40;;
16403;SDS011;8311;50.158;8.642;2024-02-04T17:24:43;0.50;;;0.40;;
16403;SDS011;8311;50.158;8.642;2024-02-04T17:27:39;0.55;;;0.30;;
16403;SDS011;8311;50.158;8.642;2024-02-04T17:30:37;0.90;;;0.40;;
16403;SDS011;8311;50.158;8.642;2024-02-04T17:33:30;0.32;;;0.32;;
16403;SDS011;8311;50.158;8.642;2024-02-04T17:36:24;0.47;;;0.47;;
16403;SDS011;8311;50.158;8.642;2024-02-04T17:39:18;0.30;;;0.30;;
16403;SDS011;8311;50.158;8.642;2024-02-04T17:42:12;0.30;;;0.30;;
16403;SDS011;8311;50.158;8.642;2024-02-04T17:45:05;0.35;;;0.30;;
16403;SDS011;8311;50.158;8.642;2024-02-04T17:48:02;0.45;;;0.45;;